Time;durP1;ratioP1;P1;durP2;ratioP2;P2;SDS_P1;SDS_P2;PMS_P1;PMS_P2;Temp;Humidity;BMP_temperature;BMP_pressure;BME280_temperature;BME280_humidity;BME280_pressure;Samples;Min_cycle;Max_cycle;Signal;HPM_P1;HPM_P2
2024/02/03 00:01:00;;;;;;;7.20;5.83;;;8.60;99.90;;;;;;5064123;28;20818;-90
2024/02/03 00:03:27;;;;;;;9.37;7.50;;;8.60;99.90;;;;;;5061310;28;20434;-89
2024/02/03 00:05:55;;;;;;;10.03;8.10;;;8.50;99.90;;;;;;5060714;28;20451;-89
2024/02/03 00:08:25;;;;;;;9.57;7.43;;;8.50;99.90;;;;;;5060410;28;20441;-89
2024/02/03 00:10:55;;;;;;;10.37;7.97;;;8.50;99.90;;;;;;5068619;28;20415;-88
2024/02/03 00:13:26;;;;;;;9.70;7.50;;;8.50;99.90;;;;;;5073587;28;20437;-89
2024/02/03 00:15:53;;;;;;;9.70;7.63;;;8.40;99.90;;;;;;5073474;28;20523;-90
2024/02/03 00:18:39;;;;;;;9.63;8.17;;;8.40;99.90;;;;;;5060787;28;20478;-90
2024/02/03 00:21:07;;;;;;;9.50;7.80;;;8.50;99.90;;;;;;5062467;28;20449;-90
2024/02/03 00:23:37;;;;;;;8.83;7.93;;;8.50;99.90;;;;;;5060790;28;20446;-89
2024/02/03 00:26:04;;;;;;;9.93;6.87;;;8.50;99.90;;;;;;5062003;28;20463;-91
2024/02/03 00:28:36;;;;;;;9.53;7.30;;;8.50;99.90;;;;;;5061572;28;20449;-90
2024/02/03 00:31:03;;;;;;;9.77;7.90;;;8.50;99.90;;;;;;5059547;28;21007;-92
2024/02/03 00:33:33;;;;;;;10.77;7.67;;;8.50;99.90;;;;;;5059684;28;20784;-90
2024/02/03 00:36:03;;;;;;;7.33;6.47;;;8.50;99.90;;;;;;5062388;28;20446;-89
2024/02/03 00:38:32;;;;;;;9.00;7.50;;;8.50;99.90;;;;;;5067145;28;20438;-89
2024/02/03 00:41:00;;;;;;;8.80;6.00;;;8.60;99.90;;;;;;5079163;28;20507;-89
2024/02/03 00:43:32;;;;;;;8.90;6.87;;;8.60;99.90;;;;;;5079565;28;20442;-88
2024/02/03 00:45:59;;;;;;;9.67;7.00;;;8.60;99.90;;;;;;5068449;28;20453;-88
2024/02/03 00:48:26;;;;;;;8.37;6.80;;;8.60;99.90;;;;;;5067208;28;20420;-89
2024/02/03 00:50:55;;;;;;;7.53;6.70;;;8.70;99.90;;;;;;5060839;28;20425;-89
2024/02/03 00:53:22;;;;;;;8.33;6.90;;;8.80;99.90;;;;;;5058928;28;20428;-90
2024/02/03 00:55:49;;;;;;;8.63;7.17;;;8.70;99.90;;;;;;5059289;28;20450;-89
2024/02/03 00:58:20;;;;;;;7.00;6.30;;;8.70;99.90;;;;;;5060684;28;20453;-88
2024/02/03 01:00:47;;;;;;;9.97;8.13;;;8.70;1.00;;;;;;5066713;28;20440;-89
2024/02/03 01:03:17;;;;;;;9.60;7.07;;;8.80;99.90;;;;;;5078929;28;20428;-89
2024/02/03 01:05:44;;;;;;;8.50;6.97;;;8.80;99.90;;;;;;5079350;28;20428;-89
2024/02/03 01:08:13;;;;;;;10.80;7.83;;;8.80;99.90;;;;;;5077036;28;20779;-89
2024/02/03 01:10:42;;;;;;;9.50;7.20;;;8.80;99.90;;;;;;5074798;28;20436;-89
2024/02/03 01:13:14;;;;;;;9.67;7.93;;;8.80;99.90;;;;;;5067889;28;20455;-89
2024/02/03 01:15:41;;;;;;;8.17;6.17;;;8.80;1.00;;;;;;5063314;28;20473;-89
2024/02/03 01:18:08;;;;;;;8.37;6.73;;;8.80;99.90;;;;;;5062109;28;20435;-89
2024/02/03 01:20:36;;;;;;;8.03;6.20;;;8.80;99.90;;;;;;5075372;28;20485;-88
2024/02/03 01:23:04;;;;;;;8.93;7.17;;;8.90;1.00;;;;;;5060793;28;20474;-89
2024/02/03 01:25:38;;;;;;;10.13;7.17;;;8.90;99.90;;;;;;5060302;28;20531;-89
2024/02/03 01:28:16;;;;;;;9.97;8.67;;;8.90;99.90;;;;;;5062428;28;20763;-89
2024/02/03 01:30:48;;;;;;;9.33;7.00;;;8.90;99.90;;;;;;5064157;28;20412;-89
2024/02/03 01:33:17;;;;;;;10.57;7.90;;;8.90;99.90;;;;;;5071983;28;20411;-89
2024/02/03 01:35:50;;;;;;;10.63;7.43;;;9.00;99.90;;;;;;5078610;28;20495;-88
2024/02/03 01:38:21;;;;;;;10.53;7.93;;;9.00;99.90;;;;;;5076353;28;20473;-89
2024/02/03 01:41:02;;;;;;;8.20;6.27;;;9.00;99.90;;;;;;5066487;28;20448;-89
2024/02/03 01:43:32;;;;;;;9.00;6.50;;;9.00;99.90;;;;;;5062422;28;20481;-89
2024/02/03 01:46:08;;;;;;;9.00;6.63;;;9.00;99.90;;;;;;5061505;28;20422;-89
2024/02/03 01:48:41;;;;;;;9.97;7.00;;;9.10;99.90;;;;;;5060469;28;20983;-89
2024/02/03 01:51:16;;;;;;;7.87;7.07;;;9.10;99.90;;;;;;5061640;28;20445;-89
2024/02/03 01:54:02;;;;;;;9.33;7.27;;;9.10;99.90;;;;;;5060102;28;20487;-89
2024/02/03 01:56:41;;;;;;;9.23;6.90;;;9.10;99.90;;;;;;5060498;28;20448;-89
2024/02/03 01:59:16;;;;;;;8.83;6.97;;;9.10;99.90;;;;;;5059911;28;20438;-88
2024/02/03 02:01:52;;;;;;;9.93;7.27;;;9.20;99.90;;;;;;5058889;28;20542;-89
2024/02/03 02:04:25;;;;;;;9.87;6.83;;;9.20;99.90;;;;;;5058825;28;20465;-90
2024/02/03 02:06:59;;;;;;;7.33;5.93;;;9.20;99.90;;;;;;5060003;28;20943;-89
2024/02/03 02:09:39;;;;;;;9.50;8.00;;;9.20;99.90;;;;;;5059627;28;20428;-89
2024/02/03 02:12:37;;;;;;;9.40;6.70;;;9.20;99.90;;;;;;5059015;28;20424;-89
2024/02/03 02:15:23;;;;;;;8.90;7.23;;;9.20;99.90;;;;;;5058653;28;20513;-88
2024/02/03 02:18:16;;;;;;;11.77;7.60;;;9.20;99.90;;;;;;5065667;28;20433;-89
2024/02/03 02:20:55;;;;;;;7.47;6.33;;;9.20;99.90;;;;;;5073958;28;20568;-88
2024/02/03 02:23:30;;;;;;;8.47;7.00;;;9.20;99.90;;;;;;5063365;28;20433;-90
2024/02/03 02:26:07;;;;;;;8.67;7.37;;;9.20;80.70;;;;;;5059224;28;20548;-89
2024/02/03 02:28:38;;;;;;;8.50;7.70;;;9.30;1.00;;;;;;5059660;28;20520;-89
2024/02/03 02:31:10;;;;;;;10.73;7.20;;;9.30;1.00;;;;;;5059116;28;20434;-89
2024/02/03 02:33:44;;;;;;;8.97;7.20;;;9.30;1.00;;;;;;5071406;28;20468;-89
2024/02/03 02:36:39;;;;;;;8.60;7.27;;;9.40;1.00;;;;;;5068687;28;20448;-89
2024/02/03 02:39:17;;;;;;;8.87;7.37;;;9.40;1.00;;;;;;5062174;28;20456;-89
2024/02/03 02:41:50;;;;;;;9.13;7.17;;;9.40;1.00;;;;;;5061274;28;20469;-89
2024/02/03 02:44:17;;;;;;;9.40;6.97;;;9.40;1.00;;;;;;5062221;28;20504;-89
2024/02/03 02:46:52;;;;;;;9.00;7.50;;;9.40;1.00;;;;;;5059504;28;20423;-89
2024/02/03 02:49:22;;;;;;;9.30;7.73;;;9.40;1.00;;;;;;5070689;28;20453;-89
2024/02/03 02:51:54;;;;;;;8.37;7.00;;;9.40;1.00;;;;;;5078347;28;20453;-89
2024/02/03 02:54:21;;;;;;;13.43;7.00;;;9.50;1.00;;;;;;5078325;28;20460;-88
2024/02/03 02:56:57;;;;;;;7.60;6.80;;;9.40;1.00;;;;;;5078390;28;20425;-88
2024/02/03 02:59:31;;;;;;;9.57;8.17;;;9.50;1.00;;;;;;5077398;28;20373;-88
2024/02/03 03:02:04;;;;;;;10.13;7.97;;;9.50;1.00;;;;;;5078270;28;20488;-89
2024/02/03 03:04:34;;;;;;;9.37;7.30;;;9.50;1.00;;;;;;5078192;28;20424;-88
2024/02/03 03:07:05;;;;;;;10.60;7.83;;;9.50;1.00;;;;;;5078453;28;20466;-88
2024/02/03 03:09:40;;;;;;;9.57;7.97;;;9.50;1.00;;;;;;5078455;28;20426;-88
2024/02/03 03:12:08;;;;;;;11.20;8.57;;;9.40;1.00;;;;;;5078343;28;20533;-88
2024/02/03 03:14:35;;;;;;;11.57;8.77;;;9.50;1.00;;;;;;5077890;28;20536;-89
2024/02/03 03:17:03;;;;;;;10.00;7.87;;;9.60;1.00;;;;;;5073013;28;20451;-90
2024/02/03 03:19:40;;;;;;;9.80;8.00;;;9.50;1.00;;;;;;5065018;28;20475;-90
2024/02/03 03:22:16;;;;;;;11.63;9.40;;;9.60;1.00;;;;;;5063795;28;20472;-89
2024/02/03 03:24:43;;;;;;;12.40;8.47;;;9.60;1.00;;;;;;5068788;28;20568;-89
2024/02/03 03:27:18;;;;;;;10.67;8.97;;;9.60;99.90;;;;;;5067731;28;20450;-89
2024/02/03 03:29:46;;;;;;;10.77;9.07;;;9.50;1.00;;;;;;5059601;28;20441;-91
2024/02/03 03:32:17;;;;;;;10.70;8.80;;;9.60;99.90;;;;;;5064824;28;20437;-89
2024/02/03 03:34:44;;;;;;;10.43;8.77;;;9.60;99.90;;;;;;5058860;28;20545;-89
2024/02/03 03:37:12;;;;;;;10.63;9.13;;;9.60;99.90;;;;;;5059635;28;20449;-89
2024/02/03 03:39:40;;;;;;;10.47;8.57;;;9.70;99.90;;;;;;5061382;28;20479;-89
2024/02/03 03:42:12;;;;;;;10.87;8.40;;;9.60;99.90;;;;;;5061718;28;20488;-88
2024/02/03 03:44:57;;;;;;;11.80;8.80;;;9.70;1.00;;;;;;5060842;28;20568;-89
2024/02/03 03:47:27;;;;;;;11.40;8.50;;;9.70;1.00;;;;;;5061438;28;20461;-89
2024/02/03 03:50:00;;;;;;;11.93;9.27;;;9.80;1.00;;;;;;5061784;28;20422;-89
2024/02/03 03:52:34;;;;;;;12.80;8.60;;;9.70;1.00;;;;;;5060849;28;20414;-89
2024/02/03 03:55:10;;;;;;;9.53;8.03;;;9.70;1.00;;;;;;5061576;28;20538;-89
2024/02/03 03:57:41;;;;;;;9.57;8.43;;;9.70;1.00;;;;;;5061587;28;20932;-89
2024/02/03 04:00:14;;;;;;;10.13;9.03;;;9.60;1.00;;;;;;5062031;28;20548;-89
2024/02/03 04:02:41;;;;;;;11.30;8.27;;;9.50;9.00;;;;;;5069770;28;20450;-89
2024/02/03 04:05:14;;;;;;;12.60;8.60;;;9.40;88.30;;;;;;5077340;28;20545;-90
2024/02/03 04:07:53;;;;;;;10.13;8.53;;;9.50;99.90;;;;;;5067548;28;20449;-90
2024/02/03 04:10:23;;;;;;;14.30;9.90;;;9.50;99.90;;;;;;5064417;28;20417;-89
2024/02/03 04:12:51;;;;;;;12.30;9.37;;;9.50;99.90;;;;;;5080444;28;20412;-89
2024/02/03 04:15:20;;;;;;;14.50;10.00;;;9.50;99.90;;;;;;5081220;28;20470;-89
2024/02/03 04:17:50;;;;;;;11.77;9.50;;;9.50;97.90;;;;;;5067639;28;20441;-89
2024/02/03 04:20:31;;;;;;;15.47;9.93;;;9.60;83.70;;;;;;5062087;28;20536;-89
2024/02/03 04:23:15;;;;;;;11.40;9.77;;;9.60;48.40;;;;;;5061809;28;20548;-90
2024/02/03 04:25:42;;;;;;;11.10;9.10;;;9.50;72.90;;;;;;5059323;22;20571;-88
2024/02/03 04:28:09;;;;;;;12.50;8.77;;;9.70;6.10;;;;;;5039772;28;20438;-87
2024/02/03 04:30:36;;;;;;;10.93;9.03;;;9.70;1.00;;;;;;5039292;28;20438;-87
2024/02/03 04:33:03;;;;;;;13.90;10.20;;;9.70;1.00;;;;;;5057084;28;20442;-88
2024/02/03 04:35:31;;;;;;;12.30;9.03;;;9.80;1.00;;;;;;5069930;28;20565;-88
2024/02/03 04:38:02;;;;;;;14.23;10.90;;;9.80;1.00;;;;;;5062960;28;20452;-88
2024/02/03 04:40:29;;;;;;;13.27;10.20;;;9.80;1.00;;;;;;5062027;28;20430;-89
2024/02/03 04:42:55;;;;;;;12.37;9.83;;;9.90;1.00;;;;;;5059075;28;20937;-88
2024/02/03 04:45:22;;;;;;;11.50;9.47;;;9.90;1.00;;;;;;5058601;28;20480;-88
2024/02/03 04:47:49;;;;;;;14.20;11.53;;;9.90;1.00;;;;;;5068196;28;20527;-88
2024/02/03 04:50:16;;;;;;;15.43;10.27;;;9.90;1.00;;;;;;5069830;28;20496;-88
2024/02/03 04:52:43;;;;;;;9.90;8.30;;;9.90;99.90;;;;;;5062511;28;20520;-88
2024/02/03 04:55:11;;;;;;;10.47;9.23;;;10.00;99.90;;;;;;5058637;28;20469;-89
2024/02/03 04:57:39;;;;;;;10.43;9.33;;;10.00;99.90;;;;;;5058312;28;20980;-89
2024/02/03 05:00:08;;;;;;;11.00;9.30;;;10.00;99.90;;;;;;5063755;28;21007;-89
2024/02/03 05:02:35;;;;;;;9.47;8.23;;;10.00;99.90;;;;;;5080113;28;20469;-89
2024/02/03 05:05:02;;;;;;;11.77;9.00;;;10.00;99.90;;;;;;5080209;28;20461;-89
2024/02/03 05:07:29;;;;;;;11.63;9.10;;;10.10;99.90;;;;;;5080401;28;20464;-88
2024/02/03 05:09:56;;;;;;;12.97;9.23;;;10.00;99.90;;;;;;5062838;28;20450;-88
2024/02/03 05:12:24;;;;;;;13.00;10.20;;;10.10;99.90;;;;;;5075523;28;20497;-87
2024/02/03 05:14:51;;;;;;;13.33;9.17;;;10.20;99.90;;;;;;5079157;28;20485;-89
2024/02/03 05:17:17;;;;;;;16.80;12.27;;;10.10;99.90;;;;;;5078269;28;20440;-87
2024/02/03 05:19:44;;;;;;;12.20;9.47;;;10.10;99.90;;;;;;5078537;28;20418;-87
2024/02/03 05:22:11;;;;;;;16.50;13.77;;;10.10;99.90;;;;;;5078523;28;20496;-89
2024/02/03 05:24:38;;;;;;;13.30;9.90;;;10.20;99.90;;;;;;5067863;28;20544;-89
2024/02/03 05:27:05;;;;;;;10.13;8.50;;;10.10;1.00;;;;;;5073871;28;20485;-88
2024/02/03 05:29:33;;;;;;;12.17;9.17;;;10.10;99.90;;;;;;5074461;28;20479;-88
2024/02/03 05:32:00;;;;;;;11.23;8.50;;;10.00;1.00;;;;;;5066105;28;20532;-89
2024/02/03 05:34:27;;;;;;;12.10;10.17;;;10.10;1.00;;;;;;5067643;28;20458;-89
2024/02/03 05:36:54;;;;;;;13.37;10.40;;;10.10;1.00;;;;;;5062533;28;20452;-89
2024/02/03 05:39:21;;;;;;;10.10;8.77;;;10.10;1.00;;;;;;5070790;28;20487;-89
2024/02/03 05:41:48;;;;;;;8.50;7.60;;;10.10;1.00;;;;;;5069244;28;20477;-88
2024/02/03 05:44:15;;;;;;;12.23;10.47;;;10.20;1.00;;;;;;5066432;28;20501;-89
2024/02/03 05:46:43;;;;;;;11.33;9.17;;;10.10;1.00;;;;;;5069113;28;20437;-89
2024/02/03 05:49:10;;;;;;;9.33;8.23;;;10.20;1.00;;;;;;5070090;28;20434;-89
2024/02/03 05:51:37;;;;;;;8.80;7.63;;;10.10;1.00;;;;;;5066044;28;20457;-88
2024/02/03 05:54:03;;;;;;;9.17;7.37;;;10.10;1.00;;;;;;5071038;28;20449;-88
2024/02/03 05:56:30;;;;;;;11.57;7.50;;;10.10;1.00;;;;;;5068700;28;20445;-89
2024/02/03 05:58:57;;;;;;;8.70;6.50;;;10.10;1.00;;;;;;5072028;28;20461;-89
2024/02/03 06:01:24;;;;;;;8.97;6.90;;;10.10;1.00;;;;;;5076234;28;20481;-89
2024/02/03 06:03:52;;;;;;;7.90;6.40;;;10.10;1.00;;;;;;5065625;28;20464;-89
2024/02/03 06:06:19;;;;;;;9.57;7.47;;;10.10;1.00;;;;;;5070043;28;20442;-89
2024/02/03 06:08:46;;;;;;;8.43;6.40;;;10.10;1.00;;;;;;5070391;28;20430;-89
2024/02/03 06:11:13;;;;;;;7.97;6.13;;;10.10;1.00;;;;;;5074137;28;20429;-89
2024/02/03 06:13:40;;;;;;;10.30;7.30;;;10.10;1.00;;;;;;5069664;28;20448;-89
2024/02/03 06:16:07;;;;;;;7.17;6.47;;;10.20;1.00;;;;;;5061264;28;20449;-89
2024/02/03 06:18:34;;;;;;;7.50;6.13;;;10.20;1.00;;;;;;5058300;28;20960;-89
2024/02/03 06:21:03;;;;;;;6.77;6.07;;;10.10;1.00;;;;;;5057974;28;20993;-89
2024/02/03 06:23:30;;;;;;;7.33;6.63;;;10.10;1.00;;;;;;5058859;28;20881;-89
2024/02/03 06:25:56;;;;;;;6.33;5.73;;;10.10;1.00;;;;;;5075323;28;20513;-89
2024/02/03 06:28:24;;;;;;;8.93;6.80;;;10.10;1.00;;;;;;5077009;28;20442;-89
2024/02/03 06:30:50;;;;;;;10.70;6.20;;;10.10;1.00;;;;;;5063154;28;20503;-89
2024/02/03 06:33:17;;;;;;;7.13;6.47;;;10.10;1.00;;;;;;5057923;28;20428;-89
2024/02/03 06:35:44;;;;;;;16.67;11.33;;;10.10;1.00;;;;;;5059441;28;20553;-88
2024/02/03 06:38:13;;;;;;;7.83;6.60;;;10.10;1.00;;;;;;5064638;28;20470;-88
2024/02/03 06:40:39;;;;;;;7.70;7.00;;;10.20;1.00;;;;;;5066291;28;20463;-89
2024/02/03 06:43:06;;;;;;;8.40;6.60;;;10.20;1.00;;;;;;5066971;28;20512;-89
2024/02/03 06:45:33;;;;;;;6.97;6.03;;;10.20;1.00;;;;;;5065879;28;20513;-89
2024/02/03 06:48:00;;;;;;;8.27;7.40;;;10.10;1.00;;;;;;5057723;28;20519;-89
2024/02/03 06:50:27;;;;;;;7.83;5.77;;;10.00;1.00;;;;;;5057220;28;20480;-89
2024/02/03 06:52:54;;;;;;;8.97;7.30;;;10.00;49.60;;;;;;5064067;28;21003;-88
2024/02/03 06:55:22;;;;;;;8.03;6.93;;;10.00;99.90;;;;;;5067028;28;20492;-90
2024/02/03 06:57:49;;;;;;;9.53;7.00;;;10.00;95.90;;;;;;5075372;28;20464;-90
2024/02/03 07:00:16;;;;;;;9.13;7.10;;;10.00;99.90;;;;;;5077353;28;20986;-90
2024/02/03 07:02:43;;;;;;;7.80;6.70;;;10.00;99.90;;;;;;5077382;28;20520;-88
2024/02/03 07:05:10;;;;;;;11.30;7.27;;;9.90;99.90;;;;;;5076636;28;20474;-90
2024/02/03 07:07:37;;;;;;;12.57;8.13;;;10.00;99.90;;;;;;5078066;28;20425;-89
2024/02/03 07:10:05;;;;;;;7.07;6.20;;;9.90;99.90;;;;;;5077648;28;20460;-87
2024/02/03 07:12:33;;;;;;;9.10;6.93;;;10.00;99.90;;;;;;5081753;28;20432;-88
2024/02/03 07:15:00;;;;;;;9.13;7.33;;;9.90;99.90;;;;;;5081581;28;20465;-88
2024/02/03 07:17:27;;;;;;;8.43;7.53;;;9.90;99.90;;;;;;5081776;28;20430;-88
2024/02/03 07:19:54;;;;;;;8.27;7.37;;;9.80;99.90;;;;;;5081850;28;20437;-88
2024/02/03 07:22:21;;;;;;;9.20;6.90;;;9.90;99.90;;;;;;5081687;28;20469;-88
2024/02/03 07:24:48;;;;;;;8.23;7.23;;;9.80;99.90;;;;;;5081552;28;20492;-88
2024/02/03 07:27:15;;;;;;;8.60;7.57;;;9.80;99.90;;;;;;5082029;28;20452;-88
2024/02/03 07:29:43;;;;;;;8.70;6.30;;;9.80;99.90;;;;;;5082057;28;20420;-88
2024/02/03 07:32:10;;;;;;;8.90;6.83;;;9.80;99.90;;;;;;5081794;28;20422;-88
2024/02/03 07:34:41;;;;;;;10.00;7.97;;;9.70;99.90;;;;;;5079862;28;20464;-88
2024/02/03 07:37:08;;;;;;;10.27;8.30;;;9.70;1.00;;;;;;5067724;28;20430;-88
2024/02/03 07:39:36;;;;;;;7.50;6.70;;;9.80;1.00;;;;;;5063715;28;20419;-89
2024/02/03 07:42:04;;;;;;;12.30;8.17;;;9.70;1.00;;;;;;5063681;28;20473;-88
2024/02/03 07:44:32;;;;;;;9.93;7.77;;;9.70;1.00;;;;;;5076874;28;20449;-87
2024/02/03 07:47:00;;;;;;;8.37;7.07;;;9.80;1.00;;;;;;5081879;28;20436;-86
2024/02/03 07:49:27;;;;;;;7.40;6.13;;;9.80;1.00;;;;;;5081607;28;20452;-88
2024/02/03 07:51:54;;;;;;;10.80;7.80;;;9.80;1.00;;;;;;5079893;28;20445;-88
2024/02/03 07:54:21;;;;;;;9.57;7.50;;;9.70;1.00;;;;;;5079349;28;20474;-89
2024/02/03 07:56:47;;;;;;;8.73;6.97;;;9.70;1.00;;;;;;5080831;28;20509;-88
2024/02/03 07:59:15;;;;;;;8.80;7.13;;;9.70;1.00;;;;;;5079792;28;20423;-89
2024/02/03 08:01:41;;;;;;;9.47;6.57;;;9.70;1.00;;;;;;5074274;28;20489;-89
2024/02/03 08:04:10;;;;;;;9.00;7.57;;;9.70;1.00;;;;;;5072292;28;20456;-89
2024/02/03 08:06:37;;;;;;;10.33;7.17;;;9.70;1.00;;;;;;5075392;28;20422;-89
2024/02/03 08:09:04;;;;;;;10.73;7.23;;;9.70;1.00;;;;;;5069934;28;20445;-89
2024/02/03 08:11:31;;;;;;;8.27;6.40;;;9.60;1.00;;;;;;5079505;28;20441;-89
2024/02/03 08:13:58;;;;;;;10.73;7.07;;;9.60;1.00;;;;;;5068474;28;20438;-89
2024/02/03 08:16:25;;;;;;;7.97;6.53;;;9.60;1.00;;;;;;5061112;28;20484;-89
2024/02/03 08:18:52;;;;;;;8.67;6.37;;;9.60;1.00;;;;;;5073997;28;20422;-88
2024/02/03 08:21:20;;;;;;;8.60;6.00;;;9.60;1.00;;;;;;5080917;28;20441;-87
2024/02/03 08:23:47;;;;;;;9.67;7.03;;;9.70;1.00;;;;;;5080558;28;20444;-88
2024/02/03 08:26:14;;;;;;;8.63;7.70;;;9.60;1.00;;;;;;5080971;28;20469;-87
2024/02/03 08:28:41;;;;;;;7.60;6.17;;;9.60;1.00;;;;;;5080706;28;20399;-88
2024/02/03 08:31:08;;;;;;;8.90;6.77;;;9.60;1.00;;;;;;5068333;28;20534;-89
2024/02/03 08:33:35;;;;;;;7.27;6.17;;;9.70;1.00;;;;;;5063567;28;20453;-89
2024/02/03 08:36:03;;;;;;;9.57;6.80;;;9.70;1.00;;;;;;5061801;28;20457;-88
2024/02/03 08:38:31;;;;;;;8.43;6.77;;;9.70;1.00;;;;;;5061155;28;20450;-88
2024/02/03 08:40:58;;;;;;;7.80;6.07;;;9.70;1.00;;;;;;5059822;28;20441;-89
2024/02/03 08:43:25;;;;;;;6.87;6.20;;;9.70;1.00;;;;;;5059524;28;20512;-89
2024/02/03 08:45:52;;;;;;;8.40;7.00;;;9.80;1.00;;;;;;5060848;28;20457;-89
2024/02/03 08:48:18;;;;;;;9.50;7.80;;;9.80;1.00;;;;;;5062500;28;20476;-88
2024/02/03 08:50:45;;;;;;;10.23;7.20;;;9.90;1.00;;;;;;5059882;28;20883;-89
2024/02/03 08:53:12;;;;;;;9.37;7.80;;;9.90;1.00;;;;;;5059654;28;20449;-89
2024/02/03 08:55:41;;;;;;;8.70;7.07;;;10.00;1.00;;;;;;5058773;28;20500;-89
2024/02/03 08:58:07;;;;;;;9.30;6.60;;;9.90;1.00;;;;;;5061160;28;20417;-89
2024/02/03 09:00:34;;;;;;;13.87;9.40;;;9.90;1.00;;;;;;5061454;28;20544;-89
2024/02/03 09:03:01;;;;;;;8.00;6.20;;;9.90;1.00;;;;;;5060680;28;20481;-89
2024/02/03 09:05:28;;;;;;;7.73;6.80;;;10.00;1.00;;;;;;5061365;28;20459;-88
2024/02/03 09:07:56;;;;;;;7.70;7.00;;;10.00;1.00;;;;;;5060280;28;20446;-89
2024/02/03 09:10:24;;;;;;;11.27;10.07;;;10.00;1.00;;;;;;5059813;28;20513;-89
2024/02/03 09:12:52;;;;;;;7.97;7.20;;;10.00;1.00;;;;;;5059770;28;20445;-89
2024/02/03 09:15:19;;;;;;;6.00;5.40;;;10.10;1.00;;;;;;5061704;28;20473;-87
2024/02/03 09:17:46;;;;;;;6.40;5.30;;;10.10;1.00;;;;;;5062046;28;20471;-87
2024/02/03 09:20:13;;;;;;;7.07;6.00;;;10.10;1.00;;;;;;5058992;28;20880;-87
2024/02/03 09:22:41;;;;;;;7.40;5.40;;;10.20;1.00;;;;;;5059553;28;20486;-87
2024/02/03 09:25:09;;;;;;;5.50;5.00;;;10.20;1.00;;;;;;5058407;28;20551;-88
2024/02/03 09:27:36;;;;;;;5.53;4.93;;;10.20;1.00;;;;;;5061089;28;20823;-86
2024/02/03 09:30:06;;;;;;;5.50;5.00;;;10.20;1.00;;;;;;5065916;28;20488;-87
2024/02/03 09:32:32;;;;;;;5.40;4.73;;;10.10;1.00;;;;;;5071794;28;20438;-85
2024/02/03 09:34:59;;;;;;;6.33;5.73;;;10.10;1.00;;;;;;5067555;28;20457;-86
2024/02/03 09:37:27;;;;;;;7.10;5.77;;;10.20;1.00;;;;;;5074287;28;20469;-87
2024/02/03 09:39:55;;;;;;;6.23;5.33;;;10.20;1.00;;;;;;5074641;28;20590;-86
2024/02/03 09:42:23;;;;;;;5.33;4.83;;;10.20;1.00;;;;;;5065344;28;20603;-87
2024/02/03 09:44:50;;;;;;;5.13;4.67;;;10.10;1.00;;;;;;5064537;28;20556;-87
2024/02/03 09:47:19;;;;;;;4.77;4.07;;;10.20;1.00;;;;;;5060729;28;20502;-88
2024/02/03 09:49:46;;;;;;;5.10;4.60;;;10.30;1.00;;;;;;5061354;28;20478;-86
2024/02/03 09:52:14;;;;;;;6.03;5.50;;;10.30;1.00;;;;;;5063073;28;20480;-86
2024/02/03 09:54:45;;;;;;;4.57;4.10;;;10.30;1.00;;;;;;5059978;28;20565;-87
2024/02/03 09:57:12;;;;;;;5.40;4.90;;;10.30;1.00;;;;;;5057992;28;20400;-87
2024/02/03 09:59:39;;;;;;;4.70;4.30;;;10.40;1.00;;;;;;5057554;28;20420;-87
2024/02/03 10:02:06;;;;;;;4.93;4.07;;;10.40;1.00;;;;;;5058782;28;20484;-88
2024/02/03 10:04:40;;;;;;;5.03;4.63;;;10.40;1.00;;;;;;5057898;28;20540;-87
2024/02/03 10:07:08;;;;;;;4.07;3.67;;;10.40;1.00;;;;;;5061166;28;20498;-87
2024/02/03 10:09:35;;;;;;;4.80;3.90;;;10.40;99.90;;;;;;5062676;28;20450;-87
2024/02/03 10:12:02;;;;;;;5.17;4.67;;;10.30;99.90;;;;;;5069807;28;20416;-87
2024/02/03 10:14:29;;;;;;;5.23;4.73;;;10.40;1.00;;;;;;5072608;28;20484;-87
2024/02/03 10:16:57;;;;;;;4.43;4.03;;;10.30;1.00;;;;;;5067494;28;20453;-87
2024/02/03 10:19:23;;;;;;;4.10;3.77;;;10.40;99.90;;;;;;5059359;28;20449;-87
2024/02/03 10:21:53;;;;;;;5.23;4.70;;;10.40;99.90;;;;;;5058761;28;20473;-87
2024/02/03 10:24:25;;;;;;;5.40;4.07;;;10.50;99.90;;;;;;5059435;28;20546;-87
2024/02/03 10:27:00;;;;;;;4.50;4.10;;;10.50;99.90;;;;;;5061185;28;20434;-87
2024/02/03 10:29:27;;;;;;;4.83;4.30;;;10.60;99.90;;;;;;5074464;28;20449;-87
2024/02/03 10:31:54;;;;;;;4.13;3.73;;;10.60;99.90;;;;;;5076819;28;20508;-87
2024/02/03 10:34:21;;;;;;;3.67;3.37;;;10.60;99.90;;;;;;5074686;28;20540;-87
2024/02/03 10:36:48;;;;;;;4.07;3.50;;;10.70;99.90;;;;;;5067009;28;20473;-87
2024/02/03 10:39:17;;;;;;;7.60;4.10;;;10.70;99.90;;;;;;5059303;28;20522;-86
2024/02/03 10:41:47;;;;;;;7.33;3.77;;;10.70;99.90;;;;;;5060791;28;20503;-89
2024/02/03 10:44:22;;;;;;;4.20;3.30;;;10.70;99.90;;;;;;5066020;28;20488;-88
2024/02/03 10:46:52;;;;;;;4.60;4.13;;;10.80;99.90;;;;;;5077311;28;20456;-88
2024/02/03 10:49:26;;;;;;;3.77;3.47;;;10.80;99.90;;;;;;5077314;28;20413;-88
2024/02/03 10:51:55;;;;;;;4.30;3.90;;;10.90;99.90;;;;;;5074311;28;20433;-88
2024/02/03 10:54:26;;;;;;;4.97;4.47;;;10.90;99.90;;;;;;5074804;28;20472;-88
2024/02/03 10:56:57;;;;;;;3.70;3.40;;;10.90;99.90;;;;;;5074202;28;20410;-88
2024/02/03 10:59:24;;;;;;;3.80;3.50;;;10.80;99.90;;;;;;5069604;28;20445;-89
2024/02/03 11:01:51;;;;;;;3.73;3.40;;;10.80;96.40;;;;;;5063160;28;20464;-88
2024/02/03 11:04:18;;;;;;;4.70;3.60;;;10.80;90.80;;;;;;5062813;28;20482;-88
2024/02/03 11:06:47;;;;;;;3.40;3.13;;;10.90;81.90;;;;;;5065748;28;20528;-89
2024/02/03 11:09:17;;;;;;;4.17;3.87;;;10.80;58.50;;;;;;5076196;28;20431;-88
2024/02/03 11:11:47;;;;;;;5.00;3.93;;;11.00;47.10;;;;;;5070358;28;20918;-88
2024/02/03 11:14:19;;;;;;;4.53;4.13;;;11.00;1.00;;;;;;5062096;28;20452;-87
2024/02/03 11:16:53;;;;;;;3.40;3.10;;;11.00;1.00;;;;;;5059746;28;20460;-89
2024/02/03 11:19:26;;;;;;;5.27;4.70;;;10.90;1.00;;;;;;5060055;28;20429;-88
2024/02/03 11:21:56;;;;;;;5.87;3.80;;;10.90;1.00;;;;;;5061093;28;20440;-88
2024/02/03 11:24:34;;;;;;;5.40;3.77;;;11.00;1.00;;;;;;5064205;28;20576;-89
2024/02/03 11:27:07;;;;;;;3.80;3.50;;;10.90;1.00;;;;;;5069553;28;20429;-87
2024/02/03 11:29:34;;;;;;;4.60;4.20;;;11.00;8.30;;;;;;5068267;28;20529;-87
2024/02/03 11:32:03;;;;;;;4.20;3.87;;;11.10;1.00;;;;;;5066058;28;20446;-88
2024/02/03 11:34:32;;;;;;;4.40;4.00;;;11.20;1.00;;;;;;5068419;28;20465;-87
2024/02/03 11:37:00;;;;;;;4.40;4.00;;;11.20;1.00;;;;;;5067990;28;20500;-88
2024/02/03 11:39:30;;;;;;;4.53;4.23;;;11.10;1.00;;;;;;5064168;28;20476;-88
2024/02/03 11:41:57;;;;;;;4.43;3.80;;;11.20;1.00;;;;;;5061268;28;20446;-88
2024/02/03 11:44:31;;;;;;;3.90;3.60;;;11.10;1.00;;;;;;5059987;28;20610;-87
2024/02/03 11:46:58;;;;;;;5.07;4.27;;;11.00;1.00;;;;;;5061269;28;20453;-87
2024/02/03 11:49:25;;;;;;;4.93;4.37;;;11.10;1.00;;;;;;5059842;28;20442;-86
2024/02/03 11:52:00;;;;;;;4.50;3.77;;;11.00;1.00;;;;;;5060302;28;20440;-88
2024/02/03 11:54:27;;;;;;;4.17;3.80;;;10.90;1.00;;;;;;5061763;28;20522;-87
2024/02/03 11:56:56;;;;;;;4.90;4.50;;;10.80;19.50;;;;;;5066685;28;20454;-86
2024/02/03 11:59:27;;;;;;;4.47;3.93;;;10.80;96.10;;;;;;5081369;28;20441;-87
2024/02/03 12:01:56;;;;;;;4.87;4.47;;;10.80;99.90;;;;;;5081398;28;20469;-88
2024/02/03 12:04:24;;;;;;;3.53;3.23;;;10.70;99.90;;;;;;5069104;28;20542;-88
2024/02/03 12:06:52;;;;;;;4.47;3.57;;;10.70;99.90;;;;;;5066997;28;20499;-87
2024/02/03 12:09:19;;;;;;;4.53;4.10;;;10.70;99.90;;;;;;5076921;28;20426;-87
2024/02/03 12:11:49;;;;;;;5.40;4.53;;;10.60;99.90;;;;;;5074692;28;20437;-88
2024/02/03 12:14:16;;;;;;;4.87;4.43;;;10.70;99.90;;;;;;5069717;28;20469;-88
2024/02/03 12:16:46;;;;;;;5.30;4.80;;;10.70;99.90;;;;;;5073082;28;20449;-88
2024/02/03 12:19:13;;;;;;;6.07;5.43;;;10.70;99.90;;;;;;5068968;28;20906;-88
2024/02/03 12:21:40;;;;;;;5.30;4.80;;;10.70;99.90;;;;;;5063615;28;20453;-87
2024/02/03 12:24:08;;;;;;;4.40;4.10;;;10.70;99.90;;;;;;5063405;28;20522;-87
2024/02/03 12:26:35;;;;;;;8.43;5.27;;;10.80;99.90;;;;;;5063220;28;20485;-88
2024/02/03 12:29:02;;;;;;;5.20;4.70;;;10.80;99.90;;;;;;5062663;28;20477;-88
2024/02/03 12:31:29;;;;;;;5.73;5.10;;;10.80;99.90;;;;;;5062092;28;20989;-88
2024/02/03 12:33:58;;;;;;;5.13;4.40;;;10.90;99.90;;;;;;5063862;28;20450;-88
2024/02/03 12:36:25;;;;;;;4.60;4.20;;;10.80;99.90;;;;;;5067416;28;20457;-88
2024/02/03 12:38:53;;;;;;;4.07;3.67;;;10.80;99.90;;;;;;5078447;28;20453;-88
2024/02/03 12:41:20;;;;;;;5.37;4.87;;;10.80;99.90;;;;;;5070094;28;20453;-87
2024/02/03 12:43:47;;;;;;;5.47;4.97;;;10.70;99.90;;;;;;5068482;28;20472;-88
2024/02/03 12:46:16;;;;;;;6.40;5.07;;;10.70;99.90;;;;;;5069494;28;20497;-88
2024/02/03 12:48:43;;;;;;;6.03;5.30;;;10.60;99.90;;;;;;5072119;28;20516;-88
2024/02/03 12:51:12;;;;;;;6.20;5.57;;;10.60;99.90;;;;;;5075043;28;20513;-88
2024/02/03 12:53:39;;;;;;;5.60;5.10;;;10.50;99.90;;;;;;5071298;28;20441;-88
2024/02/03 12:56:11;;;;;;;5.43;4.87;;;10.50;99.90;;;;;;5072341;28;20457;-88
2024/02/03 12:58:38;;;;;;;6.73;5.40;;;10.50;99.90;;;;;;5068641;28;20496;-88
2024/02/03 13:01:05;;;;;;;5.70;4.90;;;10.40;1.00;;;;;;5066213;28;20471;-89
2024/02/03 13:03:32;;;;;;;14.43;5.83;;;10.70;1.00;;;;;;5070287;28;20495;-87